createdAt,value
2019-01-23T00:00:50.719Z,0.00
2019-01-23T00:01:50.758Z,0.00
2019-01-23T00:02:50.711Z,0.00
2019-01-23T00:03:50.696Z,0.00
2019-01-23T00:04:50.668Z,0.00
2019-01-23T00:05:50.670Z,0.00
2019-01-23T00:06:50.663Z,0.00
2019-01-23T00:07:50.674Z,0.00
2019-01-23T00:08:50.652Z,0.00
2019-01-23T00:09:50.609Z,0.00
2019-01-23T00:10:50.617Z,0.00
2019-01-23T00:11:50.664Z,0.00
2019-01-23T00:12:50.598Z,0.00
2019-01-23T00:13:50.587Z,0.00
2019-01-23T00:14:50.580Z,0.00
2019-01-23T00:15:50.543Z,0.00
2019-01-23T00:16:50.664Z,0.00
2019-01-23T00:17:50.574Z,0.00
2019-01-23T00:18:50.533Z,0.00
2019-01-23T00:19:50.520Z,0.00
2019-01-23T00:20:50.527Z,0.00
2019-01-23T00:21:50.503Z,0.00
2019-01-23T00:22:50.492Z,0.00
2019-01-23T00:23:50.749Z,0.00
2019-01-23T00:24:50.474Z,0.00
2019-01-23T00:25:50.456Z,0.00
2019-01-23T00:26:50.449Z,0.00
2019-01-23T00:27:50.484Z,0.00
2019-01-23T00:28:50.427Z,0.00
2019-01-23T00:29:50.442Z,0.00
2019-01-23T00:30:50.427Z,0.00
2019-01-23T00:31:50.419Z,0.00
2019-01-23T00:32:50.460Z,0.00
2019-01-23T00:33:50.368Z,0.00
2019-01-23T00:34:50.435Z,0.00
2019-01-23T00:35:50.356Z,0.00
2019-01-23T00:36:50.343Z,0.00
2019-01-23T00:37:50.367Z,0.00
2019-01-23T00:38:50.325Z,0.00
2019-01-23T00:39:50.340Z,0.00
2019-01-23T00:40:50.360Z,0.00
2019-01-23T00:41:50.284Z,0.00
2019-01-23T00:42:50.280Z,0.00
2019-01-23T00:43:50.277Z,0.00
2019-01-23T00:44:50.263Z,0.00
2019-01-23T00:45:50.241Z,0.00
2019-01-23T00:46:50.238Z,0.00
2019-01-23T00:47:50.226Z,0.00
2019-01-23T00:48:50.247Z,0.00
2019-01-23T00:49:50.200Z,0.00
2019-01-23T00:50:50.207Z,0.00
2019-01-23T00:51:50.179Z,0.00
2019-01-23T00:52:50.172Z,0.00
2019-01-23T00:53:50.191Z,0.00
2019-01-23T00:54:50.152Z,0.00
2019-01-23T00:55:50.146Z,0.00
2019-01-23T00:56:50.135Z,0.00
2019-01-23T00:57:50.127Z,0.00
2019-01-23T00:58:50.165Z,0.00
2019-01-23T00:59:50.130Z,0.00
2019-01-23T01:00:50.086Z,0.00
2019-01-23T01:01:50.129Z,0.00
2019-01-23T01:02:50.078Z,0.00
2019-01-23T01:03:50.059Z,0.00
2019-01-23T01:04:50.114Z,0.00
2019-01-23T01:05:50.091Z,0.00
2019-01-23T01:06:50.031Z,0.00
2019-01-23T01:07:50.041Z,0.00
2019-01-23T01:08:50.049Z,0.00
2019-01-23T01:09:50.033Z,0.00
2019-01-23T01:10:49.979Z,0.00
2019-01-23T01:11:49.964Z,0.00
2019-01-23T01:12:49.965Z,0.00
2019-01-23T01:13:49.990Z,0.00
2019-01-23T01:14:50.005Z,0.00
2019-01-23T01:15:49.956Z,0.00
2019-01-23T01:16:49.927Z,0.00
2019-01-23T01:17:49.938Z,0.00
2019-01-23T01:18:49.898Z,0.00
2019-01-23T01:19:49.919Z,0.00
2019-01-23T01:20:49.907Z,0.00
2019-01-23T01:21:49.906Z,0.00
2019-01-23T01:22:49.941Z,0.00
2019-01-23T01:23:49.868Z,0.00
2019-01-23T01:24:49.881Z,0.00
2019-01-23T01:25:49.902Z,0.00
2019-01-23T01:26:49.833Z,0.00
2019-01-23T01:27:49.814Z,0.00
2019-01-23T01:28:55.820Z,0.00
2019-01-23T01:29:50.763Z,0.00
2019-01-23T01:30:49.861Z,0.00
2019-01-23T01:31:49.764Z,0.00
2019-01-23T01:32:49.759Z,0.00
2019-01-23T01:33:49.755Z,0.00
2019-01-23T01:34:49.734Z,0.00
2019-01-23T01:35:49.771Z,0.00
2019-01-23T01:36:49.748Z,0.00
2019-01-23T01:37:49.711Z,0.00
2019-01-23T01:38:49.704Z,0.00
2019-01-23T01:39:49.680Z,0.00
2019-01-23T01:40:49.654Z,0.00
2019-01-23T01:41:49.692Z,0.00
2019-01-23T01:42:49.676Z,0.00
2019-01-23T01:43:49.646Z,0.00
2019-01-23T01:44:49.652Z,0.00
2019-01-23T01:45:49.645Z,0.00
2019-01-23T01:46:49.603Z,0.00
2019-01-23T01:47:49.597Z,0.00
2019-01-23T01:48:49.613Z,0.00
2019-01-23T01:49:49.597Z,0.00
2019-01-23T01:50:49.597Z,0.00
2019-01-23T01:51:49.576Z,0.00
2019-01-23T01:52:49.566Z,0.00
2019-01-23T01:53:49.620Z,0.00
2019-01-23T01:54:49.558Z,0.00
2019-01-23T01:55:49.579Z,0.00
2019-01-23T01:56:49.501Z,0.00
2019-01-23T01:57:49.511Z,0.00
2019-01-23T01:58:49.489Z,0.00
2019-01-23T01:59:49.476Z,0.00
2019-01-23T02:00:49.496Z,0.00
2019-01-23T02:01:49.492Z,0.00
2019-01-23T02:02:49.464Z,0.00
2019-01-23T02:03:49.427Z,0.00
2019-01-23T02:04:49.414Z,0.00
2019-01-23T02:05:49.393Z,0.00
2019-01-23T02:06:49.416Z,0.00
2019-01-23T02:07:49.436Z,0.00
2019-01-23T02:08:49.397Z,0.00
2019-01-23T02:09:49.442Z,0.00
2019-01-23T02:10:49.401Z,0.00
2019-01-23T02:11:49.371Z,0.00
2019-01-23T02:12:49.375Z,0.00
2019-01-23T02:13:49.337Z,0.00
2019-01-23T02:14:49.310Z,0.00
2019-01-23T02:15:49.320Z,0.00
2019-01-23T02:16:49.380Z,0.00
2019-01-23T02:17:49.293Z,0.00
2019-01-23T02:18:49.299Z,0.00
2019-01-23T02:19:49.272Z,0.00
2019-01-23T02:20:49.278Z,0.00
2019-01-23T02:21:49.291Z,0.00
2019-01-23T02:22:49.211Z,0.00
2019-01-23T02:23:49.219Z,0.00
2019-01-23T02:24:49.206Z,0.00
2019-01-23T02:25:49.189Z,0.00
2019-01-23T02:26:49.175Z,0.00
2019-01-23T02:27:49.171Z,0.00
2019-01-23T02:28:49.160Z,0.00
2019-01-23T02:29:49.151Z,0.00
2019-01-23T02:30:49.150Z,0.00
2019-01-23T02:31:49.121Z,0.00
2019-01-23T02:32:49.170Z,0.00
2019-01-23T02:33:49.101Z,0.00
2019-01-23T02:34:49.098Z,0.00
2019-01-23T02:35:49.084Z,0.00
2019-01-23T02:36:49.073Z,0.00
2019-01-23T02:37:49.126Z,0.00
2019-01-23T02:38:49.070Z,0.00
2019-01-23T02:39:49.036Z,0.00
2019-01-23T02:40:49.026Z,0.00
2019-01-23T02:41:49.029Z,0.00
2019-01-23T02:42:49.005Z,0.00
2019-01-23T02:43:49.053Z,0.00
2019-01-23T02:44:48.989Z,0.00
2019-01-23T02:45:48.984Z,0.00
2019-01-23T02:46:48.965Z,0.00
2019-01-23T02:47:48.960Z,0.00
2019-01-23T02:48:48.961Z,0.00
2019-01-23T02:49:48.978Z,0.00
2019-01-23T02:50:48.922Z,0.00
2019-01-23T02:51:48.919Z,0.00
2019-01-23T02:52:48.976Z,0.00
2019-01-23T02:53:48.966Z,0.00
2019-01-23T02:54:48.890Z,0.00
2019-01-23T02:55:48.917Z,0.00
2019-01-23T02:56:48.905Z,0.00
2019-01-23T02:57:48.925Z,0.00
2019-01-23T02:58:48.844Z,0.00
2019-01-23T02:59:48.859Z,0.00
2019-01-23T03:00:48.878Z,0.00
2019-01-23T03:01:48.832Z,0.00
2019-01-23T03:02:48.817Z,0.00
2019-01-23T03:03:48.814Z,0.00
2019-01-23T03:04:48.751Z,0.00
2019-01-23T03:05:48.769Z,0.00
2019-01-23T03:06:48.731Z,0.00
2019-01-23T03:07:48.745Z,0.00
2019-01-23T03:08:48.797Z,0.00
2019-01-23T03:09:48.713Z,0.00
2019-01-23T03:10:48.709Z,0.00
2019-01-23T03:11:48.695Z,0.00
2019-01-23T03:12:48.683Z,0.00
2019-01-23T03:13:48.676Z,0.00
2019-01-23T03:14:48.693Z,0.00
2019-01-23T03:15:48.634Z,0.00
2019-01-23T03:16:48.660Z,0.00
2019-01-23T03:17:48.644Z,0.00
2019-01-23T03:18:48.618Z,0.00
2019-01-23T03:19:48.669Z,0.00
2019-01-23T03:20:48.582Z,0.00
2019-01-23T03:21:48.583Z,0.00
2019-01-23T03:22:48.589Z,0.00
2019-01-23T03:23:48.566Z,0.00
2019-01-23T03:24:48.595Z,0.00
2019-01-23T03:25:48.570Z,0.00
2019-01-23T03:26:48.536Z,0.00
2019-01-23T03:27:48.546Z,0.00
2019-01-23T03:28:48.536Z,0.00
2019-01-23T03:29:48.560Z,0.00
2019-01-23T03:30:48.487Z,0.00
2019-01-23T03:31:48.486Z,0.00
2019-01-23T03:32:48.499Z,0.00
2019-01-23T03:33:48.441Z,0.00
2019-01-23T03:34:48.485Z,0.00
2019-01-23T03:35:48.466Z,0.00
2019-01-23T03:36:48.428Z,0.00
2019-01-23T03:37:48.420Z,0.00
2019-01-23T03:38:48.460Z,0.00
2019-01-23T03:39:48.383Z,0.00
2019-01-23T03:40:48.456Z,0.00
2019-01-23T03:41:48.434Z,0.00
2019-01-23T03:42:48.382Z,0.00
2019-01-23T03:43:48.363Z,0.00
2019-01-23T03:44:48.339Z,0.00
2019-01-23T03:45:48.357Z,0.00
2019-01-23T03:46:48.358Z,0.00
2019-01-23T03:47:48.290Z,0.00
2019-01-23T03:48:48.292Z,0.00
2019-01-23T03:49:48.331Z,0.00
2019-01-23T03:50:48.363Z,0.00
2019-01-23T03:51:48.296Z,0.00
2019-01-23T03:52:48.258Z,0.00
2019-01-23T03:53:48.272Z,0.00
2019-01-23T03:54:48.234Z,0.00
2019-01-23T03:55:48.235Z,0.00
2019-01-23T03:56:48.243Z,0.00
2019-01-23T03:57:48.283Z,0.00
2019-01-23T03:58:48.191Z,0.00
2019-01-23T03:59:48.187Z,0.00
2019-01-23T04:00:48.237Z,0.00
2019-01-23T04:01:48.163Z,0.00
2019-01-23T04:02:48.231Z,0.00
2019-01-23T04:03:48.235Z,0.00
2019-01-23T04:04:48.156Z,0.00
2019-01-23T04:05:48.103Z,0.00
2019-01-23T04:06:48.118Z,0.00
2019-01-23T04:07:48.101Z,0.00
2019-01-23T04:08:48.087Z,0.00
2019-01-23T04:09:48.114Z,0.00
2019-01-23T04:10:48.095Z,0.00
2019-01-23T04:11:48.052Z,0.00
2019-01-23T04:12:48.095Z,0.00
2019-01-23T04:13:48.064Z,0.00
2019-01-23T04:14:48.038Z,0.00
2019-01-23T04:15:48.075Z,0.00
2019-01-23T04:16:48.003Z,0.00
2019-01-23T04:17:48.016Z,0.00
2019-01-23T04:18:48.005Z,0.00
2019-01-23T04:19:47.965Z,0.00
2019-01-23T04:20:47.990Z,0.00
2019-01-23T04:21:47.990Z,0.00
2019-01-23T04:22:47.946Z,0.00
2019-01-23T04:23:47.915Z,0.00
2019-01-23T04:24:47.941Z,0.00
2019-01-23T04:25:47.902Z,0.00
2019-01-23T04:26:47.924Z,0.00
2019-01-23T04:27:47.892Z,0.00
2019-01-23T04:28:47.890Z,0.00
2019-01-23T04:29:47.870Z,0.00
2019-01-23T04:30:47.969Z,0.00
2019-01-23T04:31:47.841Z,0.00
2019-01-23T04:32:47.916Z,0.00
2019-01-23T04:33:47.851Z,0.00
2019-01-23T04:34:47.804Z,0.00
2019-01-23T04:35:48.031Z,0.00
2019-01-23T04:36:47.777Z,0.00
2019-01-23T04:37:47.789Z,0.00
2019-01-23T04:38:47.822Z,0.00
2019-01-23T04:39:47.779Z,0.00
2019-01-23T04:40:47.768Z,0.00
2019-01-23T04:41:47.804Z,0.00
2019-01-23T04:42:47.756Z,0.00
2019-01-23T04:43:47.709Z,0.00
2019-01-23T04:44:47.753Z,0.00
2019-01-23T04:45:47.719Z,0.00
2019-01-23T04:46:47.701Z,0.00
2019-01-23T04:47:47.747Z,0.00
2019-01-23T04:48:47.689Z,0.00
2019-01-23T04:49:47.682Z,0.00
2019-01-23T04:50:47.686Z,0.00
2019-01-23T04:51:47.676Z,0.00
2019-01-23T04:52:47.626Z,0.00
2019-01-23T04:53:47.642Z,0.00
2019-01-23T04:54:47.595Z,0.00
2019-01-23T04:55:47.562Z,0.00
2019-01-23T04:56:47.599Z,0.00
2019-01-23T04:57:47.557Z,0.00
2019-01-23T04:58:47.588Z,0.00
2019-01-23T04:59:47.572Z,0.00
2019-01-23T05:00:47.560Z,0.00
2019-01-23T05:01:47.501Z,0.00
2019-01-23T05:02:47.533Z,0.00
2019-01-23T05:03:47.530Z,0.00
2019-01-23T05:04:47.515Z,0.00
2019-01-23T05:05:47.491Z,0.00
2019-01-23T05:06:47.483Z,0.00
2019-01-23T05:07:47.474Z,0.00
2019-01-23T05:08:47.507Z,0.00
2019-01-23T05:09:47.409Z,0.00
2019-01-23T05:10:47.460Z,0.00
2019-01-23T05:11:47.394Z,0.00
2019-01-23T05:12:47.429Z,0.00
2019-01-23T05:13:47.400Z,0.00
2019-01-23T05:14:47.382Z,0.00
2019-01-23T05:15:47.349Z,0.00
2019-01-23T05:16:47.349Z,0.00
2019-01-23T05:17:47.326Z,0.00
2019-01-23T05:18:47.363Z,0.00
2019-01-23T05:19:47.380Z,0.00
2019-01-23T05:20:47.338Z,0.00
2019-01-23T05:21:47.283Z,0.00
2019-01-23T05:22:47.278Z,0.00
2019-01-23T05:23:47.296Z,0.00
2019-01-23T05:24:47.314Z,0.00
2019-01-23T05:25:47.273Z,0.00
2019-01-23T05:26:47.254Z,0.00
2019-01-23T05:27:47.221Z,0.00
2019-01-23T05:28:47.230Z,0.00
2019-01-23T05:29:54.659Z,0.00
2019-01-23T05:30:48.270Z,0.00
2019-01-23T05:31:47.209Z,0.00
2019-01-23T05:32:47.169Z,0.00
2019-01-23T05:33:47.177Z,0.00
2019-01-23T05:34:47.202Z,0.00
2019-01-23T05:35:47.163Z,0.00
2019-01-23T05:36:47.132Z,0.00
2019-01-23T05:37:47.144Z,0.00
2019-01-23T05:38:47.124Z,0.00
2019-01-23T05:39:47.153Z,0.00
2019-01-23T05:40:47.112Z,0.00
2019-01-23T05:41:47.097Z,0.00
2019-01-23T05:42:47.077Z,0.00
2019-01-23T05:43:47.081Z,0.00
2019-01-23T05:44:47.143Z,0.00
2019-01-23T05:45:47.136Z,0.00
2019-01-23T05:46:47.045Z,0.00
2019-01-23T05:47:47.027Z,0.00
2019-01-23T05:48:47.027Z,0.00
2019-01-23T05:49:47.009Z,0.00
2019-01-23T05:50:47.054Z,0.00
2019-01-23T05:51:46.982Z,0.00
2019-01-23T05:52:46.963Z,0.00
2019-01-23T05:53:46.962Z,0.00
2019-01-23T05:54:46.953Z,0.00
2019-01-23T05:55:46.961Z,0.00
2019-01-23T05:56:46.937Z,0.00
2019-01-23T05:57:46.904Z,0.00
2019-01-23T05:58:46.902Z,0.00
2019-01-23T05:59:46.906Z,0.00
2019-01-23T06:00:46.919Z,0.00
2019-01-23T06:01:46.886Z,0.00
2019-01-23T06:02:46.859Z,0.00
2019-01-23T06:03:46.844Z,0.00
2019-01-23T06:04:46.857Z,0.00
2019-01-23T06:05:46.867Z,0.00
2019-01-23T06:06:46.861Z,0.00
2019-01-23T06:07:46.833Z,0.00
2019-01-23T06:08:46.833Z,0.00
2019-01-23T06:09:46.822Z,0.00
2019-01-23T06:10:46.793Z,0.00
2019-01-23T06:11:46.809Z,0.00
2019-01-23T06:12:46.762Z,0.00
2019-01-23T06:13:46.750Z,0.00
2019-01-23T06:14:46.762Z,0.00
2019-01-23T06:15:46.766Z,0.00
2019-01-23T06:16:46.758Z,0.00
2019-01-23T06:17:46.937Z,0.00
2019-01-23T06:18:46.695Z,0.00
2019-01-23T06:19:46.743Z,0.00
2019-01-23T06:20:46.707Z,0.00
2019-01-23T06:21:46.668Z,0.00
2019-01-23T06:22:46.658Z,0.00
2019-01-23T06:23:46.707Z,0.00
2019-01-23T06:24:46.625Z,0.00
2019-01-23T06:25:46.925Z,0.00
2019-01-23T06:26:46.612Z,0.00
2019-01-23T06:27:46.636Z,0.00
2019-01-23T06:28:46.639Z,0.00
2019-01-23T06:29:46.583Z,0.00
2019-01-23T06:30:46.576Z,0.00
2019-01-23T06:31:46.605Z,0.00
2019-01-23T06:32:46.565Z,0.00
2019-01-23T06:33:46.567Z,0.00
2019-01-23T06:34:46.585Z,0.00
2019-01-23T06:35:46.517Z,0.00
2019-01-23T06:36:46.507Z,0.00
2019-01-23T06:37:46.500Z,0.00
2019-01-23T06:38:46.541Z,0.00
2019-01-23T06:39:46.469Z,0.00
2019-01-23T06:40:46.445Z,0.00
2019-01-23T06:41:46.474Z,0.00
2019-01-23T06:42:46.507Z,0.00
2019-01-23T06:43:46.469Z,0.00
2019-01-23T06:44:46.422Z,0.00
2019-01-23T06:45:46.389Z,0.00
2019-01-23T06:46:46.410Z,0.00
2019-01-23T06:47:46.444Z,0.00
2019-01-23T06:48:46.405Z,0.00
2019-01-23T06:49:46.375Z,0.00
2019-01-23T06:50:46.374Z,0.00
2019-01-23T06:51:46.345Z,0.00
2019-01-23T06:52:46.395Z,0.00
2019-01-23T06:53:46.308Z,0.00
2019-01-23T06:54:46.406Z,0.00
2019-01-23T06:55:46.326Z,0.00
2019-01-23T06:56:46.288Z,0.00
2019-01-23T06:57:46.299Z,0.00
2019-01-23T06:58:46.308Z,4.00
2019-01-23T06:59:46.283Z,4.00
2019-01-23T07:00:46.261Z,0.00
2019-01-23T07:01:46.265Z,0.00
2019-01-23T07:02:46.224Z,4.00
2019-01-23T07:03:46.253Z,0.00
2019-01-23T07:04:46.224Z,4.00
2019-01-23T07:05:46.269Z,4.00
2019-01-23T07:06:46.203Z,4.00
2019-01-23T07:07:46.176Z,4.00
2019-01-23T07:08:46.419Z,4.00
2019-01-23T07:09:46.156Z,4.00
2019-01-23T07:10:46.150Z,8.00
2019-01-23T07:11:46.158Z,8.00
2019-01-23T07:12:46.158Z,8.00
2019-01-23T07:13:46.108Z,12.00
2019-01-23T07:14:46.142Z,12.00
2019-01-23T07:15:46.090Z,12.00
2019-01-23T07:16:46.063Z,12.00
2019-01-23T07:17:46.100Z,16.00
2019-01-23T07:18:46.083Z,16.00
2019-01-23T07:19:46.105Z,16.00
2019-01-23T07:20:46.083Z,20.00
2019-01-23T07:21:46.033Z,20.00
2019-01-23T07:22:46.046Z,24.00
2019-01-23T07:23:46.079Z,24.00
2019-01-23T07:24:46.083Z,28.00
2019-01-23T07:25:46.016Z,28.00
2019-01-23T07:26:45.973Z,32.00
2019-01-23T07:27:45.957Z,32.00
2019-01-23T07:28:49.358Z,40.00
2019-01-23T07:29:45.956Z,44.00
2019-01-23T07:30:45.948Z,48.00
2019-01-23T07:31:45.919Z,48.00
2019-01-23T07:32:45.934Z,52.00
2019-01-23T07:33:45.973Z,60.00
2019-01-23T07:34:45.968Z,60.00
2019-01-23T07:35:45.883Z,64.00
2019-01-23T07:36:45.907Z,72.00
2019-01-23T07:37:45.926Z,76.00
2019-01-23T07:38:45.868Z,80.00
2019-01-23T07:39:45.880Z,88.00
2019-01-23T07:40:45.856Z,96.00
2019-01-23T07:41:45.838Z,104.00
2019-01-23T07:42:45.828Z,108.00
2019-01-23T07:43:45.818Z,112.00
2019-01-23T07:44:45.849Z,116.00
2019-01-23T07:45:45.798Z,120.00
2019-01-23T07:46:45.795Z,132.00
2019-01-23T07:47:45.773Z,136.00
2019-01-23T07:48:45.762Z,148.00
2019-01-23T07:49:45.787Z,148.00
2019-01-23T07:50:45.752Z,152.00
2019-01-23T07:51:45.738Z,152.00
2019-01-23T07:52:45.733Z,156.00
2019-01-23T07:53:45.710Z,160.00
2019-01-23T07:54:45.686Z,160.00
2019-01-23T07:55:45.734Z,164.00
2019-01-23T07:56:45.677Z,164.00
2019-01-23T07:57:45.673Z,160.00
2019-01-23T07:58:45.656Z,164.00
2019-01-23T07:59:45.634Z,164.00
2019-01-23T08:00:45.687Z,164.00
2019-01-23T08:01:45.613Z,172.00
2019-01-23T08:02:45.619Z,176.00
2019-01-23T08:03:45.586Z,176.00
2019-01-23T08:04:45.600Z,184.00
2019-01-23T08:05:45.700Z,188.00
2019-01-23T08:06:45.601Z,196.00
2019-01-23T08:07:45.560Z,204.00
2019-01-23T08:08:45.575Z,208.00
2019-01-23T08:09:45.574Z,212.00
2019-01-23T08:10:45.553Z,216.00
2019-01-23T08:11:45.604Z,220.00
2019-01-23T08:12:45.516Z,224.00
2019-01-23T08:13:45.535Z,228.00
2019-01-23T08:14:45.505Z,240.00
2019-01-23T08:15:45.507Z,248.00
2019-01-23T08:16:45.496Z,260.00
2019-01-23T08:17:45.475Z,268.00
2019-01-23T08:18:45.443Z,280.00
2019-01-23T08:19:45.436Z,288.00
2019-01-23T08:20:45.432Z,300.00
2019-01-23T08:21:45.438Z,316.00
2019-01-23T08:22:45.371Z,332.00
2019-01-23T08:23:45.430Z,356.00
2019-01-23T08:24:45.366Z,376.00
2019-01-23T08:25:45.354Z,404.00
2019-01-23T08:26:45.442Z,428.00
2019-01-23T08:27:45.339Z,460.00
2019-01-23T08:28:45.313Z,480.00
2019-01-23T08:29:45.281Z,496.00
2019-01-23T08:30:45.273Z,500.00
2019-01-23T08:31:45.318Z,504.00
2019-01-23T08:32:45.277Z,504.00
2019-01-23T08:33:45.265Z,496.00
2019-01-23T08:34:45.234Z,480.00
2019-01-23T08:35:45.245Z,468.00
2019-01-23T08:36:45.265Z,452.00
2019-01-23T08:37:45.211Z,444.00
2019-01-23T08:38:45.209Z,440.00
2019-01-23T08:39:45.216Z,440.00
2019-01-23T08:40:45.179Z,428.00
2019-01-23T08:41:45.202Z,424.00
2019-01-23T08:42:45.202Z,424.00
2019-01-23T08:43:45.163Z,424.00
2019-01-23T08:44:45.164Z,428.00
2019-01-23T08:45:45.135Z,432.00
2019-01-23T08:46:45.160Z,436.00
2019-01-23T08:47:45.136Z,444.00
2019-01-23T08:48:45.351Z,452.00
2019-01-23T08:49:45.660Z,460.00
2019-01-23T08:50:45.100Z,464.00
2019-01-23T08:51:45.071Z,468.00
2019-01-23T08:52:45.059Z,472.00
2019-01-23T08:53:45.047Z,476.00
2019-01-23T08:54:45.081Z,480.00
2019-01-23T08:55:45.062Z,492.00
2019-01-23T08:56:45.011Z,500.00
2019-01-23T08:57:45.041Z,516.00
2019-01-23T08:58:44.996Z,536.00
2019-01-23T08:59:44.987Z,552.00
2019-01-23T09:00:45.959Z,560.00
2019-01-23T09:01:44.970Z,568.00
2019-01-23T09:02:45.011Z,568.00
2019-01-23T09:03:44.934Z,572.00
2019-01-23T09:04:44.926Z,576.00
2019-01-23T09:05:44.899Z,596.00
2019-01-23T09:06:44.923Z,612.00
2019-01-23T09:07:44.921Z,624.00
2019-01-23T09:08:44.975Z,628.00
2019-01-23T09:09:44.880Z,632.00
2019-01-23T09:10:44.858Z,632.00
2019-01-23T09:11:44.878Z,636.00
2019-01-23T09:12:44.864Z,648.00
2019-01-23T09:13:44.861Z,660.00
2019-01-23T09:14:44.832Z,668.00
2019-01-23T09:15:44.812Z,680.00
2019-01-23T09:16:44.813Z,684.00
2019-01-23T09:17:44.786Z,688.00
2019-01-23T09:18:44.858Z,696.00
2019-01-23T09:19:44.798Z,704.00
2019-01-23T09:20:44.774Z,712.00
2019-01-23T09:21:44.766Z,728.00
2019-01-23T09:22:44.743Z,748.00
2019-01-23T09:23:44.731Z,756.00
2019-01-23T09:24:44.695Z,772.00
2019-01-23T09:25:49.651Z,776.00
2019-01-23T09:26:45.748Z,776.00
2019-01-23T09:27:44.691Z,772.00
2019-01-23T09:28:44.735Z,768.00
2019-01-23T09:29:44.667Z,764.00
2019-01-23T09:30:44.651Z,764.00
2019-01-23T09:31:44.641Z,764.00
2019-01-23T09:32:44.644Z,780.00
2019-01-23T09:33:44.614Z,844.00
2019-01-23T09:34:44.601Z,908.00
2019-01-23T09:35:44.636Z,944.00
2019-01-23T09:36:44.585Z,960.00
2019-01-23T09:37:44.584Z,964.00
2019-01-23T09:38:44.622Z,940.00
2019-01-23T09:39:44.555Z,904.00
2019-01-23T09:40:44.578Z,868.00
2019-01-23T09:41:44.535Z,820.00
2019-01-23T09:42:44.517Z,788.00
2019-01-23T09:43:44.620Z,780.00
2019-01-23T09:44:44.578Z,776.00
2019-01-23T09:45:44.528Z,764.00
2019-01-23T09:46:44.499Z,732.00
2019-01-23T09:47:44.507Z,724.00
2019-01-23T09:48:44.516Z,736.00
2019-01-23T09:49:44.452Z,772.00
2019-01-23T09:50:44.460Z,808.00
2019-01-23T09:51:44.422Z,864.00
2019-01-23T09:52:44.446Z,892.00
2019-01-23T09:53:44.462Z,884.00
2019-01-23T09:54:44.407Z,852.00
2019-01-23T09:55:44.457Z,864.00
2019-01-23T09:56:44.378Z,872.00
2019-01-23T09:57:44.365Z,864.00
2019-01-23T09:58:44.388Z,868.00
2019-01-23T09:59:44.379Z,864.00
2019-01-23T10:00:44.418Z,864.00
2019-01-23T10:01:44.356Z,892.00
2019-01-23T10:02:44.310Z,904.00
2019-01-23T10:03:44.302Z,924.00
2019-01-23T10:04:44.363Z,916.00
2019-01-23T10:05:44.284Z,964.00
2019-01-23T10:06:44.296Z,1004.00
2019-01-23T10:07:44.285Z,1024.00
2019-01-23T10:08:44.244Z,1048.00
2019-01-23T10:09:44.266Z,1076.00
2019-01-23T10:10:44.237Z,1080.00
2019-01-23T10:11:44.214Z,1092.00
2019-01-23T10:12:44.230Z,1124.00
2019-01-23T10:13:44.188Z,1184.00
2019-01-23T10:14:44.219Z,1256.00
2019-01-23T10:15:44.211Z,1344.00
2019-01-23T10:16:44.144Z,1424.00
2019-01-23T10:17:44.126Z,1468.00
2019-01-23T10:18:44.178Z,1492.00
2019-01-23T10:19:44.114Z,1512.00
2019-01-23T10:20:44.168Z,1512.00
2019-01-23T10:21:44.112Z,1480.00
2019-01-23T10:22:44.123Z,1440.00
2019-01-23T10:23:44.104Z,1440.00
2019-01-23T10:24:44.127Z,1444.00
2019-01-23T10:25:44.067Z,1420.00
2019-01-23T10:26:44.092Z,1392.00
2019-01-23T10:27:44.045Z,1404.00
2019-01-23T10:28:44.027Z,1440.00
2019-01-23T10:29:44.093Z,1452.00
2019-01-23T10:30:44.069Z,1476.00
2019-01-23T10:31:43.997Z,1508.00
2019-01-23T10:32:44.021Z,1540.00
2019-01-23T10:33:44.014Z,1604.00
2019-01-23T10:34:43.982Z,1652.00
2019-01-23T10:35:43.981Z,1668.00
2019-01-23T10:36:43.976Z,1628.00
2019-01-23T10:37:43.951Z,1604.00
2019-01-23T10:38:43.921Z,1536.00
2019-01-23T10:39:43.915Z,1460.00
2019-01-23T10:40:43.903Z,1472.00
2019-01-23T10:41:43.908Z,1500.00
2019-01-23T10:42:43.886Z,1472.00
2019-01-23T10:43:43.888Z,1472.00
2019-01-23T10:44:43.846Z,1444.00
2019-01-23T10:45:43.833Z,1444.00
2019-01-23T10:46:43.902Z,1440.00
2019-01-23T10:47:43.858Z,1472.00
2019-01-23T10:48:43.815Z,1500.00
2019-01-23T10:49:43.841Z,1572.00
2019-01-23T10:50:43.798Z,1584.00
2019-01-23T10:51:43.851Z,1552.00
2019-01-23T10:52:43.779Z,1588.00
2019-01-23T10:53:43.753Z,1568.00
2019-01-23T10:54:43.775Z,1576.00
2019-01-23T10:55:43.767Z,1592.00
2019-01-23T10:56:43.795Z,1588.00
2019-01-23T10:57:43.774Z,1584.00
2019-01-23T10:58:43.715Z,1556.00
2019-01-23T10:59:43.728Z,1444.00
2019-01-23T11:00:43.719Z,1444.00
2019-01-23T11:01:43.746Z,1404.00
2019-01-23T11:02:43.656Z,1456.00
2019-01-23T11:03:43.687Z,1472.00
2019-01-23T11:04:43.672Z,1456.00
2019-01-23T11:05:43.680Z,1436.00
2019-01-23T11:06:43.662Z,1476.00
2019-01-23T11:07:43.677Z,1504.00
2019-01-23T11:08:43.635Z,1484.00
2019-01-23T11:09:43.620Z,1524.00
2019-01-23T11:10:43.613Z,1552.00
2019-01-23T11:11:43.584Z,1572.00
2019-01-23T11:12:43.628Z,1520.00
2019-01-23T11:13:43.561Z,1424.00
2019-01-23T11:14:43.557Z,1428.00
2019-01-23T11:15:43.565Z,1376.00
2019-01-23T11:16:43.536Z,1360.00
2019-01-23T11:17:43.604Z,1352.00
2019-01-23T11:18:43.535Z,1356.00
2019-01-23T11:19:43.508Z,1404.00
2019-01-23T11:20:43.509Z,1316.00
2019-01-23T11:21:43.499Z,1352.00
2019-01-23T11:22:43.580Z,1344.00
2019-01-23T11:23:43.516Z,1368.00
2019-01-23T11:24:43.494Z,1400.00
2019-01-23T11:25:43.431Z,1496.00
2019-01-23T11:26:43.403Z,1560.00
2019-01-23T11:27:43.451Z,1568.00
2019-01-23T11:28:43.406Z,1608.00
2019-01-23T11:29:43.394Z,1560.00
2019-01-23T11:30:43.376Z,1712.00
2019-01-23T11:31:43.363Z,1664.00
2019-01-23T11:32:43.404Z,1708.00
2019-01-23T11:33:43.347Z,1596.00
2019-01-23T11:34:43.338Z,1588.00
2019-01-23T11:35:43.372Z,1656.00
2019-01-23T11:36:43.321Z,1664.00
2019-01-23T11:37:43.367Z,1632.00
2019-01-23T11:38:43.436Z,1556.00
2019-01-23T11:39:43.287Z,1444.00
2019-01-23T11:40:43.339Z,1384.00
2019-01-23T11:41:43.350Z,1364.00
2019-01-23T11:42:43.249Z,1324.00
2019-01-23T11:43:43.261Z,1312.00
2019-01-23T11:44:43.233Z,1300.00
2019-01-23T11:45:43.224Z,1340.00
2019-01-23T11:46:43.199Z,1452.00
2019-01-23T11:47:43.204Z,1560.00
2019-01-23T11:48:43.241Z,1596.00
2019-01-23T11:49:43.176Z,1624.00
2019-01-23T11:50:43.174Z,1632.00
2019-01-23T11:51:43.163Z,1620.00
2019-01-23T11:52:43.151Z,1624.00
2019-01-23T11:53:43.148Z,1652.00
2019-01-23T11:54:43.161Z,1680.00
2019-01-23T11:55:43.122Z,1708.00
2019-01-23T11:56:43.108Z,1756.00
2019-01-23T11:57:43.092Z,1808.00
2019-01-23T11:58:43.192Z,1868.00
2019-01-23T11:59:43.083Z,1904.00
2019-01-23T12:00:43.063Z,1860.00
2019-01-23T12:01:43.055Z,1844.00
2019-01-23T12:02:43.038Z,1788.00
2019-01-23T12:03:43.074Z,1780.00
2019-01-23T12:04:43.008Z,1764.00
2019-01-23T12:05:43.024Z,1728.00
2019-01-23T12:06:43.024Z,1732.00
2019-01-23T12:07:42.986Z,1700.00
2019-01-23T12:08:42.991Z,1680.00
2019-01-23T12:09:42.969Z,1676.00
2019-01-23T12:10:43.011Z,1672.00
2019-01-23T12:11:42.950Z,1668.00
2019-01-23T12:12:42.953Z,1672.00
2019-01-23T12:13:42.920Z,1672.00
2019-01-23T12:14:42.937Z,1680.00
2019-01-23T12:15:42.905Z,1676.00
2019-01-23T12:16:42.881Z,1684.00
2019-01-23T12:17:42.881Z,1716.00
2019-01-23T12:18:42.854Z,1760.00
2019-01-23T12:19:42.849Z,1820.00
2019-01-23T12:20:42.878Z,1832.00
2019-01-23T12:21:42.822Z,1800.00
2019-01-23T12:22:42.835Z,1700.00
2019-01-23T12:23:42.841Z,1612.00
2019-01-23T12:24:42.793Z,1560.00
2019-01-23T12:25:42.835Z,1504.00
2019-01-23T12:26:42.791Z,1480.00
2019-01-23T12:27:42.766Z,1472.00
2019-01-23T12:28:42.773Z,1476.00
2019-01-23T12:29:42.757Z,1476.00
2019-01-23T12:30:42.730Z,1488.00
2019-01-23T12:31:42.781Z,1500.00
2019-01-23T12:32:42.753Z,1516.00
2019-01-23T12:33:42.724Z,1540.00
2019-01-23T12:34:42.717Z,1552.00
2019-01-23T12:35:42.759Z,1560.00
2019-01-23T12:36:42.703Z,1556.00
2019-01-23T12:37:42.675Z,1536.00
2019-01-23T12:38:42.656Z,1520.00
2019-01-23T12:39:42.666Z,1500.00
2019-01-23T12:40:42.653Z,1476.00
2019-01-23T12:41:42.657Z,1448.00
2019-01-23T12:42:42.632Z,1428.00
2019-01-23T12:43:42.610Z,1416.00
2019-01-23T12:44:42.600Z,1424.00
2019-01-23T12:45:42.862Z,1436.00
2019-01-23T12:46:42.578Z,1448.00
2019-01-23T12:47:42.573Z,1464.00
2019-01-23T12:48:42.563Z,1480.00
2019-01-23T12:49:42.544Z,1524.00
2019-01-23T12:50:42.545Z,1544.00
2019-01-23T12:51:42.559Z,1580.00